Time;durP1;ratioP1;P1;durP2;ratioP2;P2;SDS_P1;SDS_P2;PMS_P1;PMS_P2;Temp;Humidity;BMP_temperature;BMP_pressure;BME280_temperature;BME280_humidity;BME280_pressure;Samples;Min_cycle;Max_cycle;Signal;HPM_P1;HPM_P2
2022/07/11 00:01:48;;;;;;;9.85;7.13;;;;;;;13.72;100.00;97279.38;5026337;28;20045;-72
2022/07/11 00:04:14;;;;;;;15.60;7.00;;;;;;;13.68;100.00;97273.66;5025547;28;20446;-71
2022/07/11 00:06:39;;;;;;;11.93;8.07;;;;;;;13.77;100.00;97276.75;5026826;28;20069;-71
2022/07/11 00:09:04;;;;;;;15.27;8.15;;;;;;;13.82;100.00;97268.75;5024700;28;20025;-72
2022/07/11 00:11:30;;;;;;;10.43;7.28;;;;;;;13.86;100.00;97269.88;5028482;28;20135;-71
2022/07/11 00:13:58;;;;;;;14.50;8.35;;;;;;;13.92;100.00;97268.88;5026410;28;20410;-71
2022/07/11 00:16:24;;;;;;;13.35;7.85;;;;;;;13.96;100.00;97269.19;5025198;28;20084;-71
2022/07/11 00:18:49;;;;;;;12.48;7.43;;;;;;;13.99;100.00;97269.50;5025847;28;20126;-71
2022/07/11 00:21:15;;;;;;;15.65;8.55;;;;;;;14.02;100.00;97266.31;5021771;28;20416;-71
2022/07/11 00:23:40;;;;;;;15.18;8.27;;;;;;;14.05;100.00;97257.72;5027655;28;20033;-72
2022/07/11 00:26:06;;;;;;;9.73;7.47;;;;;;;14.07;100.00;97262.84;5028183;28;20059;-72
2022/07/11 00:28:31;;;;;;;20.63;8.55;;;;;;;14.05;100.00;97263.13;5027350;28;20471;-71
2022/07/11 00:30:57;;;;;;;16.55;7.70;;;;;;;13.95;100.00;97265.69;5026531;28;20407;-71
2022/07/11 00:33:22;;;;;;;14.13;8.20;;;;;;;13.86;100.00;97268.00;5027719;28;20037;-72
2022/07/11 00:35:48;;;;;;;14.27;8.75;;;;;;;13.82;100.00;97264.19;5027432;28;20116;-71
2022/07/11 00:38:14;;;;;;;14.95;8.32;;;;;;;13.80;100.00;97260.94;5026538;28;20067;-71
2022/07/11 00:40:39;;;;;;;17.10;8.98;;;;;;;13.80;100.00;97260.13;5025527;28;20037;-72
2022/07/11 00:43:05;;;;;;;15.90;9.00;;;;;;;13.81;100.00;97267.94;5027588;28;20064;-71
2022/07/11 00:45:31;;;;;;;17.40;8.85;;;;;;;13.83;100.00;97256.91;5025701;28;20037;-71
2022/07/11 00:47:57;;;;;;;14.15;8.23;;;;;;;13.85;100.00;97260.16;5029208;28;20029;-72
2022/07/11 00:50:24;;;;;;;18.63;8.68;;;;;;;13.78;100.00;97256.88;5026150;28;20045;-71
2022/07/11 00:52:51;;;;;;;15.88;8.90;;;;;;;13.81;100.00;97261.75;5041297;28;20038;-71
2022/07/11 00:55:19;;;;;;;14.25;8.65;;;;;;;13.77;100.00;97255.22;5026360;28;20044;-71
2022/07/11 00:57:45;;;;;;;14.35;8.77;;;;;;;13.80;100.00;97255.56;5023154;28;20093;-71
2022/07/11 01:00:11;;;;;;;15.00;9.02;;;;;;;13.84;100.00;97253.16;5025349;28;20041;-71
2022/07/11 01:02:37;;;;;;;17.35;8.95;;;;;;;13.88;100.00;97248.91;5026170;28;20500;-71
2022/07/11 01:05:02;;;;;;;14.65;9.10;;;;;;;13.92;100.00;97244.66;5026807;28;20045;-71
2022/07/11 01:07:31;;;;;;;16.58;9.38;;;;;;;13.95;100.00;97241.47;5025011;28;20273;-71
2022/07/11 01:09:57;;;;;;;14.55;8.70;;;;;;;13.96;100.00;97245.78;5026617;28;20063;-71
2022/07/11 01:12:22;;;;;;;11.80;8.77;;;;;;;13.95;100.00;97246.84;5027424;28;20037;-71
2022/07/11 01:14:52;;;;;;;20.02;9.40;;;;;;;13.98;100.00;97246.34;5024867;28;20044;-72
2022/07/11 01:17:18;;;;;;;23.08;9.23;;;;;;;13.93;100.00;97243.63;5026997;28;20068;-71
2022/07/11 01:19:43;;;;;;;15.63;9.23;;;;;;;13.98;100.00;97235.59;5025246;28;20111;-71
2022/07/11 01:22:11;;;;;;;17.10;8.75;;;;;;;13.83;100.00;97238.91;5026288;28;20037;-71
2022/07/11 01:24:36;;;;;;;14.55;8.85;;;;;;;13.87;100.00;97242.72;5023322;28;20037;-71
2022/07/11 01:27:05;;;;;;;14.75;9.07;;;;;;;13.92;100.00;97236.59;5024791;28;20024;-71
2022/07/11 01:29:30;;;;;;;14.90;9.52;;;;;;;13.98;100.00;97235.59;5024941;28;20422;-71
2022/07/11 01:31:56;;;;;;;15.07;8.48;;;;;;;14.01;100.00;97235.09;5023118;28;20037;-71
2022/07/11 01:34:21;;;;;;;16.48;8.68;;;;;;;14.05;100.00;97230.81;5025394;28;20047;-72
2022/07/11 01:36:47;;;;;;;12.25;8.82;;;;;;;14.03;100.00;97230.28;5026160;28;20037;-71
2022/07/11 01:39:12;;;;;;;16.08;9.20;;;;;;;14.05;100.00;97221.94;5026850;28;20056;-71
2022/07/11 01:41:38;;;;;;;26.40;10.80;;;;;;;14.06;100.00;97223.56;5023694;28;20337;-72
2022/07/11 01:44:03;;;;;;;17.80;8.63;;;;;;;14.01;100.00;97224.34;5025676;28;20033;-72
2022/07/11 01:46:29;;;;;;;14.25;8.95;;;;;;;14.00;100.00;97217.31;5024719;28;20035;-71
2022/07/11 01:48:54;;;;;;;17.55;9.30;;;;;;;14.02;100.00;97223.28;5023761;28;20075;-71
2022/07/11 01:51:22;;;;;;;22.88;9.43;;;;;;;14.03;100.00;97216.00;5026521;28;20037;-71
2022/07/11 01:53:47;;;;;;;22.30;9.73;;;;;;;14.05;100.00;97206.59;5026880;28;20052;-71
2022/07/11 01:56:13;;;;;;;15.48;8.65;;;;;;;14.07;100.00;97211.72;5025028;28;20037;-72
2022/07/11 01:58:38;;;;;;;13.73;9.07;;;;;;;14.07;100.00;97209.84;5024533;28;20041;-72
2022/07/11 02:01:04;;;;;;;15.07;8.43;;;;;;;14.04;100.00;97206.88;5024598;28;20052;-71
2022/07/11 02:03:29;;;;;;;16.08;8.68;;;;;;;14.06;100.00;97210.91;5023095;28;20151;-71
2022/07/11 02:05:55;;;;;;;15.52;8.15;;;;;;;14.05;100.00;97206.59;5027351;28;20478;-71
2022/07/11 02:08:20;;;;;;;13.05;8.30;;;;;;;14.09;100.00;97205.06;5026369;28;20345;-72
2022/07/11 02:10:48;;;;;;;12.98;8.73;;;;;;;14.10;100.00;97211.25;5025795;28;20050;-71
2022/07/11 02:13:18;;;;;;;15.68;8.75;;;;;;;14.10;100.00;97200.47;5024888;28;20049;-72
2022/07/11 02:15:46;;;;;;;21.13;9.63;;;;;;;14.03;100.00;97211.44;5024847;28;20040;-71
2022/07/11 02:18:12;;;;;;;13.65;9.02;;;;;;;14.02;100.00;97200.94;5023842;28;20116;-72
2022/07/11 02:20:40;;;;;;;13.45;8.65;;;;;;;14.00;100.00;97208.41;5023806;28;20025;-71
2022/07/11 02:23:06;;;;;;;16.38;8.40;;;;;;;14.02;100.00;97209.81;5023474;28;20680;-72
2022/07/11 02:25:37;;;;;;;14.27;8.63;;;;;;;14.05;100.00;97209.31;5025578;28;20116;-71
2022/07/11 02:28:03;;;;;;;12.80;7.85;;;;;;;14.05;100.00;97208.50;5023042;28;20476;-72
2022/07/11 02:30:28;;;;;;;15.73;8.50;;;;;;;14.01;100.00;97208.19;5022110;28;20053;-72
2022/07/11 02:32:57;;;;;;;16.10;8.63;;;;;;;14.03;100.00;97199.88;5021924;28;20042;-72
2022/07/11 02:35:22;;;;;;;14.55;8.32;;;;;;;14.05;100.00;97203.91;5025256;28;20060;-73
2022/07/11 02:37:48;;;;;;;20.63;9.80;;;;;;;14.03;100.00;97203.38;5023862;28;20581;-74
2022/07/11 02:40:14;;;;;;;14.45;8.75;;;;;;;14.03;100.00;97200.66;5026111;28;20384;-73
2022/07/11 02:42:39;;;;;;;12.10;8.25;;;;;;;14.02;100.00;97198.25;5024212;28;20033;-74
2022/07/11 02:45:07;;;;;;;15.05;9.27;;;;;;;13.99;100.00;97196.03;5024529;28;20268;-73
2022/07/11 02:47:35;;;;;;;20.77;8.57;;;;;;;14.00;100.00;97200.34;5023764;28;20124;-74
2022/07/11 02:50:00;;;;;;;19.33;9.32;;;;;;;14.03;100.00;97191.78;5024429;28;20103;-74
2022/07/11 02:52:25;;;;;;;14.63;9.02;;;;;;;14.01;100.00;97202.81;5025761;28;20583;-73
2022/07/11 02:54:51;;;;;;;16.83;9.80;;;;;;;14.01;100.00;97202.81;5025041;28;20086;-74
2022/07/11 02:57:19;;;;;;;14.50;8.95;;;;;;;14.01;100.00;97199.28;5026125;28;20064;-73
2022/07/11 02:59:44;;;;;;;15.52;9.68;;;;;;;14.02;100.00;97204.44;5024517;28;20464;-74
2022/07/11 03:02:09;;;;;;;16.33;8.80;;;;;;;14.04;100.00;97196.09;5021474;28;20419;-73
2022/07/11 03:04:35;;;;;;;21.65;9.02;;;;;;;14.05;100.00;97195.84;5025179;28;20374;-74
2022/07/11 03:07:00;;;;;;;16.33;8.40;;;;;;;14.02;100.00;97201.75;5025594;28;20554;-74
2022/07/11 03:09:26;;;;;;;12.63;8.70;;;;;;;13.96;100.00;97205.44;5023804;28;20300;-74
2022/07/11 03:11:52;;;;;;;19.13;9.73;;;;;;;13.82;100.00;97214.94;5023645;28;20504;-74
2022/07/11 03:14:18;;;;;;;18.02;9.27;;;;;;;13.76;100.00;97219.44;5023020;28;20151;-74
2022/07/11 03:16:43;;;;;;;16.88;8.60;;;;;;;13.65;100.00;97231.94;5032286;28;20094;-73
2022/07/11 03:19:09;;;;;;;18.83;9.55;;;;;;;13.59;100.00;97230.25;5026515;28;20258;-73
2022/07/11 03:21:35;;;;;;;19.60;10.18;;;;;;;13.68;100.00;97219.06;5024476;28;20043;-74
2022/07/11 03:24:00;;;;;;;22.92;9.75;;;;;;;13.69;100.00;97221.50;5026824;28;20069;-73
2022/07/11 03:26:28;;;;;;;17.05;9.05;;;;;;;13.74;100.00;97226.13;5026625;28;20431;-74
2022/07/11 03:28:53;;;;;;;14.30;9.02;;;;;;;13.77;100.00;97225.63;5024751;28;20039;-73
2022/07/11 03:31:19;;;;;;;19.38;9.02;;;;;;;13.79;100.00;97232.41;5025075;28;20073;-73
2022/07/11 03:33:45;;;;;;;19.67;8.90;;;;;;;13.80;100.00;97223.28;5028844;28;20051;-73
2022/07/11 03:36:10;;;;;;;14.68;8.73;;;;;;;13.80;100.00;97223.28;5027422;28;20423;-73
2022/07/11 03:38:37;;;;;;;12.65;8.82;;;;;;;13.85;100.00;97226.03;5026769;28;20029;-74
2022/07/11 03:41:03;;;;;;;12.25;8.15;;;;;;;13.79;100.00;97224.34;5028925;28;20030;-74
2022/07/11 03:43:30;;;;;;;14.80;9.07;;;;;;;13.80;100.00;97225.16;5026038;28;20056;-73
2022/07/11 03:45:55;;;;;;;15.98;9.15;;;;;;;13.83;100.00;97227.31;5028154;28;20048;-73
2022/07/11 03:48:21;;;;;;;15.07;9.98;;;;;;;13.87;100.00;97223.09;5028807;28;20033;-72
2022/07/11 03:50:47;;;;;;;15.32;9.02;;;;;;;13.90;100.00;97223.38;5030285;28;20371;-73
2022/07/11 03:53:13;;;;;;;13.73;9.13;;;;;;;13.92;100.00;97220.44;5026925;28;20541;-73
2022/07/11 03:55:39;;;;;;;18.05;9.30;;;;;;;13.93;100.00;97212.13;5026724;28;20129;-73
2022/07/11 03:58:04;;;;;;;18.02;9.35;;;;;;;13.99;100.00;97221.06;5025932;28;20033;-73
2022/07/11 04:00:33;;;;;;;14.00;9.38;;;;;;;14.04;100.00;97212.25;5026204;28;20369;-73
2022/07/11 04:02:59;;;;;;;20.45;9.68;;;;;;;14.06;100.00;97208.22;5029846;28;20063;-73
2022/07/11 04:05:25;;;;;;;15.02;9.32;;;;;;;14.09;100.00;97210.44;5026648;28;20380;-73
2022/07/11 04:07:51;;;;;;;14.27;9.07;;;;;;;14.07;100.00;97209.03;5026185;28;20053;-74
2022/07/11 04:10:19;;;;;;;17.40;9.32;;;;;;;14.10;100.00;97212.06;5027294;28;20729;-73
2022/07/11 04:12:45;;;;;;;17.38;9.52;;;;;;;14.07;100.00;97207.16;5024521;28;20327;-73
2022/07/11 04:15:11;;;;;;;19.58;10.00;;;;;;;14.04;100.00;97217.63;5027518;28;20045;-73
2022/07/11 04:17:37;;;;;;;15.32;9.95;;;;;;;13.96;100.00;97213.50;5027066;28;20108;-73
2022/07/11 04:20:04;;;;;;;14.55;9.55;;;;;;;13.92;100.00;97215.06;5026746;28;20072;-73
2022/07/11 04:22:30;;;;;;;13.85;9.10;;;;;;;13.89;100.00;97216.38;5025832;28;20028;-73
2022/07/11 04:24:55;;;;;;;18.05;9.55;;;;;;;13.91;100.00;97225.00;5024871;28;20413;-74
2022/07/11 04:27:21;;;;;;;18.02;11.10;;;;;;;13.97;100.00;97217.00;5027220;28;20098;-73
2022/07/11 04:29:46;;;;;;;14.20;8.88;;;;;;;14.00;100.00;97228.06;5026145;28;20508;-73
2022/07/11 04:32:12;;;;;;;17.02;9.90;;;;;;;14.03;100.00;97222.19;5024992;28;20563;-74
2022/07/11 04:34:37;;;;;;;17.65;9.50;;;;;;;13.89;100.00;97224.44;5026507;28;20071;-73
2022/07/11 04:37:04;;;;;;;20.48;10.15;;;;;;;13.96;100.00;97224.25;5025098;28;20112;-72
2022/07/11 04:39:32;;;;;;;22.20;10.32;;;;;;;13.89;100.00;97229.03;5026306;28;20063;-73
2022/07/11 04:42:00;;;;;;;18.30;9.70;;;;;;;13.95;100.00;97219.94;5028026;28;20033;-73
2022/07/11 04:44:27;;;;;;;15.52;9.43;;;;;;;13.99;100.00;97222.94;5028866;28;20349;-72
2022/07/11 04:46:53;;;;;;;20.40;8.98;;;;;;;14.00;100.00;97222.69;5026920;28;20269;-73
2022/07/11 04:49:19;;;;;;;18.00;9.68;;;;;;;14.05;100.00;97216.56;5026257;28;20289;-72
2022/07/11 04:51:45;;;;;;;17.35;9.27;;;;;;;14.08;100.00;97216.03;5026976;28;20033;-73
2022/07/11 04:54:10;;;;;;;18.17;9.70;;;;;;;14.12;100.00;97209.91;5026968;28;20340;-72
2022/07/11 04:56:37;;;;;;;19.35;10.07;;;;;;;14.23;100.00;97217.03;5025610;28;20033;-73
2022/07/11 04:59:03;;;;;;;15.50;9.52;;;;;;;14.31;100.00;97223.84;5028488;28;20041;-72
2022/07/11 05:01:29;;;;;;;19.00;9.68;;;;;;;14.29;100.00;97225.16;5025560;28;20037;-73
2022/07/11 05:03:55;;;;;;;18.08;9.88;;;;;;;14.34;100.00;97227.91;5023688;28;20060;-73
2022/07/11 05:06:21;;;;;;;19.38;9.48;;;;;;;14.38;100.00;97226.31;5028484;28;20104;-73
2022/07/11 05:08:47;;;;;;;17.33;9.25;;;;;;;14.39;100.00;97233.34;5028145;28;20136;-72
2022/07/11 05:11:12;;;;;;;19.25;10.77;;;;;;;14.53;100.00;97228.41;5025157;28;20348;-72
2022/07/11 05:13:38;;;;;;;21.85;9.30;;;;;;;14.56;100.00;97231.41;5025528;28;20068;-72
2022/07/11 05:16:04;;;;;;;16.65;9.82;;;;;;;14.52;100.00;97237.53;5027340;28;20037;-72
2022/07/11 05:18:29;;;;;;;17.48;9.13;;;;;;;14.56;100.00;97236.78;5026364;28;20037;-73
2022/07/11 05:20:55;;;;;;;13.57;9.10;;;;;;;14.58;100.00;97237.34;5025198;28;20234;-72
2022/07/11 05:23:21;;;;;;;18.20;10.05;;;;;;;14.63;100.00;97234.72;5024514;28;20068;-72
2022/07/11 05:25:46;;;;;;;18.30;9.90;;;;;;;14.61;100.00;97234.13;5027402;28;20128;-72
2022/07/11 05:28:12;;;;;;;14.40;9.27;;;;;;;14.70;100.00;97248.75;5024738;28;20102;-72
2022/07/11 05:30:37;;;;;;;21.42;10.38;;;;;;;14.72;100.00;97246.63;5027449;28;20052;-73
2022/07/11 05:33:03;;;;;;;19.25;9.02;;;;;;;14.76;100.00;97252.31;5025778;28;20550;-72
2022/07/11 05:35:28;;;;;;;15.73;9.55;;;;;;;14.84;100.00;97251.84;5028094;28;20033;-73
2022/07/11 05:37:54;;;;;;;17.50;9.57;;;;;;;14.92;100.00;97248.69;5023053;28;20500;-73
2022/07/11 05:40:20;;;;;;;14.50;9.20;;;;;;;14.96;100.00;97254.38;5023406;28;20037;-73
2022/07/11 05:42:45;;;;;;;14.93;9.38;;;;;;;14.98;100.00;97263.00;5024048;28;20087;-72
2022/07/11 05:45:11;;;;;;;17.17;9.00;;;;;;;14.97;100.00;97256.00;5020699;28;20505;-73
2022/07/11 05:47:37;;;;;;;13.75;8.73;;;;;;;15.01;100.00;97257.09;5023681;28;20119;-73
2022/07/11 05:50:03;;;;;;;19.33;9.52;;;;;;;15.00;100.00;97245.50;5023209;28;20044;-72
2022/07/11 05:52:29;;;;;;;18.73;9.25;;;;;;;15.07;100.00;97253.38;5022634;28;20121;-73
2022/07/11 05:54:54;;;;;;;13.95;8.73;;;;;;;15.14;100.00;97253.97;5036966;28;20155;-72
2022/07/11 05:57:20;;;;;;;20.40;9.93;;;;;;;15.10;100.00;97252.88;5023063;28;20029;-71
2022/07/11 05:59:46;;;;;;;16.95;9.50;;;;;;;15.13;100.00;97252.38;5026612;28;20059;-72
2022/07/11 06:02:14;;;;;;;16.02;10.18;;;;;;;15.18;100.00;97249.72;5023189;28;20135;-71
2022/07/11 06:04:42;;;;;;;17.05;9.38;;;;;;;15.25;100.00;97234.13;5025695;28;20098;-72
2022/07/11 06:07:08;;;;;;;20.08;10.38;;;;;;;15.29;100.00;97242.50;5023611;28;20503;-73
2022/07/11 06:09:34;;;;;;;17.83;10.43;;;;;;;15.42;100.00;97243.94;5024391;28;20053;-71
2022/07/11 06:11:59;;;;;;;20.08;10.05;;;;;;;15.46;100.00;97239.63;5023305;28;20148;-72
2022/07/11 06:14:25;;;;;;;16.60;10.57;;;;;;;15.42;100.00;97247.44;5024444;28;20255;-72
2022/07/11 06:16:50;;;;;;;22.83;10.07;;;;;;;15.29;100.00;97246.00;5030206;28;20502;-74
2022/07/11 06:19:16;;;;;;;17.50;10.52;;;;;;;15.44;100.00;97244.50;5022475;28;20030;-72
2022/07/11 06:21:41;;;;;;;18.83;10.43;;;;;;;15.61;100.00;97247.84;5026732;28;20127;-72
2022/07/11 06:24:07;;;;;;;20.10;10.60;;;;;;;15.76;100.00;97250.63;5021869;28;20024;-72
2022/07/11 06:26:33;;;;;;;19.85;10.68;;;;;;;15.77;100.00;97244.16;5023329;28;20083;-71
2022/07/11 06:28:58;;;;;;;13.88;9.77;;;;;;;15.64;100.00;97251.91;5024972;28;20032;-72
2022/07/11 06:31:24;;;;;;;16.02;10.98;;;;;;;15.61;100.00;97253.25;5022818;28;20329;-73
2022/07/11 06:33:54;;;;;;;21.90;10.65;;;;;;;15.46;100.00;97263.91;5023959;28;20129;-73
2022/07/11 06:36:25;;;;;;;22.13;11.05;;;;;;;15.46;100.00;97248.53;5023387;28;20079;-72
2022/07/11 06:38:51;;;;;;;;;;;;;;;15.59;100.00;97252.66;5023663;28;20064;-73
2022/07/11 06:41:16;;;;;;;19.52;11.13;;;;;;;15.76;100.00;97245.22;5027039;28;19996;-74
2022/07/11 06:43:42;;;;;;;20.58;11.35;;;;;;;15.85;100.00;97240.97;5023826;28;20041;-73
2022/07/11 06:46:08;;;;;;;22.77;11.48;;;;;;;16.02;100.00;97242.63;5023230;28;20040;-73
2022/07/11 06:48:33;;;;;;;27.58;12.43;;;;;;;15.99;100.00;97235.88;5023059;28;20095;-74
2022/07/11 06:50:58;;;;;;;22.50;12.07;;;;;;;15.93;100.00;97250.44;5025614;28;20403;-73
2022/07/11 06:53:24;;;;;;;18.77;10.90;;;;;;;16.21;100.00;97243.81;5030021;28;20033;-73
2022/07/11 06:55:49;;;;;;;17.10;11.23;;;;;;;16.36;100.00;97238.44;5026593;28;20527;-76
2022/07/11 06:58:31;;;;;;;19.60;11.13;;;;;;;16.55;100.00;97246.03;5021648;28;20037;-74
2022/07/11 07:01:05;;;;;;;22.58;10.77;;;;;;;16.71;100.00;97245.00;5024842;28;20163;-74
2022/07/11 07:03:32;;;;;;;16.90;9.23;;;;;;;16.68;100.00;97243.63;5022371;28;20039;-74
2022/07/11 07:05:58;;;;;;;17.25;10.48;;;;;;;16.71;100.00;97253.94;5028884;28;20739;-74
2022/07/11 07:08:25;;;;;;;15.68;9.20;;;;;;;16.72;100.00;97246.63;5027850;28;20071;-73
2022/07/11 07:10:51;;;;;;;19.50;10.25;;;;;;;16.65;100.00;97252.28;5029998;28;20091;-74
2022/07/11 07:13:17;;;;;;;14.90;8.98;;;;;;;16.63;100.00;97245.50;5030063;28;20120;-74
2022/07/11 07:15:43;;;;;;;12.32;7.90;;;;;;;16.69;100.00;97248.00;5030347;28;20028;-73
2022/07/11 07:18:08;;;;;;;16.77;8.40;;;;;;;16.82;100.00;97254.78;5026279;28;20362;-74
2022/07/11 07:20:33;;;;;;;12.63;7.72;;;;;;;16.94;100.00;97249.09;5029035;28;20079;-73
2022/07/11 07:22:59;;;;;;;13.25;7.47;;;;;;;17.01;100.00;97249.63;5032267;28;20063;-73
2022/07/11 07:25:25;;;;;;;15.45;6.95;;;;;;;16.88;100.00;97250.97;5030201;28;20249;-73
2022/07/11 07:27:51;;;;;;;12.77;7.28;;;;;;;16.45;100.00;97260.34;5030443;28;20037;-74
2022/07/11 07:30:17;;;;;;;14.20;7.80;;;;;;;16.13;100.00;97268.63;5026643;28;20060;-73
2022/07/11 07:32:42;;;;;;;13.95;7.88;;;;;;;16.25;100.00;97271.88;5041208;28;20306;-73
2022/07/11 07:35:08;;;;;;;17.50;7.30;;;;;;;16.37;100.00;97267.06;5023118;28;20116;-73
2022/07/11 07:37:33;;;;;;;22.23;11.10;;;;;;;16.67;100.00;97262.81;5027338;28;20131;-73
2022/07/11 07:39:59;;;;;;;16.13;7.55;;;;;;;16.92;100.00;97265.59;5027726;28;20391;-74
2022/07/11 07:42:24;;;;;;;19.45;8.18;;;;;;;17.17;100.00;97263.97;5029694;28;20083;-73
2022/07/11 07:44:50;;;;;;;12.95;6.53;;;;;;;17.40;100.00;97263.41;5025881;28;20041;-74
2022/07/11 07:47:15;;;;;;;14.60;6.95;;;;;;;17.65;100.00;97264.44;5026127;28;20037;-73
2022/07/11 07:49:41;;;;;;;13.50;7.50;;;;;;;17.83;100.00;97268.50;5039491;28;21325;-73
2022/07/11 07:52:07;;;;;;;14.73;7.55;;;;;;;17.95;100.00;97260.88;5027581;28;20049;-73
2022/07/11 07:54:32;;;;;;;11.23;7.47;;;;;;;18.08;100.00;97260.28;5025395;28;20067;-71
2022/07/11 07:56:58;;;;;;;11.82;7.32;;;;;;;18.19;100.00;97261.06;5028499;28;20045;-71
2022/07/11 07:59:24;;;;;;;10.27;6.20;;;;;;;18.24;100.00;97251.00;5024694;28;20029;-72
2022/07/11 08:01:51;;;;;;;12.60;7.30;;;;;;;18.21;100.00;97261.56;5024442;28;20226;-71
2022/07/11 08:04:17;;;;;;;12.73;6.63;;;;;;;18.31;100.00;97258.84;5026345;28;20450;-71
2022/07/11 08:06:42;;;;;;;15.95;6.85;;;;;;;18.31;100.00;97256.13;5026498;28;20059;-71
2022/07/11 08:09:08;;;;;;;11.55;6.63;;;;;;;18.23;100.00;97260.22;5024397;28;20560;-72
2022/07/11 08:11:34;;;;;;;11.88;6.18;;;;;;;18.15;100.00;97260.81;5028502;28;20033;-71
2022/07/11 08:14:00;;;;;;;13.35;6.05;;;;;;;18.04;100.00;97267.34;5027547;28;20472;-73
2022/07/11 08:16:28;;;;;;;13.55;6.20;;;;;;;17.83;100.00;97276.63;5027508;28;20033;-71
2022/07/11 08:18:55;;;;;;;12.98;5.72;;;;;;;17.91;100.00;97274.16;5023443;28;20128;-72
2022/07/11 08:21:21;;;;;;;15.93;7.25;;;;;;;18.31;100.00;97273.19;5023515;28;20107;-72
2022/07/11 08:23:47;;;;;;;10.27;5.63;;;;;;;18.52;100.00;97279.34;5034311;28;20064;-73
2022/07/11 08:26:12;;;;;;;10.20;5.82;;;;;;;18.64;100.00;97277.06;5028878;28;20763;-72
2022/07/11 08:28:38;;;;;;;10.75;5.85;;;;;;;18.71;100.00;97273.28;5024686;28;20037;-73
2022/07/11 08:31:08;;;;;;;11.80;5.75;;;;;;;18.61;100.00;97276.84;5023203;28;20053;-74
2022/07/11 08:33:33;;;;;;;14.88;5.63;;;;;;;18.39;100.00;97274.50;5023143;28;20146;-73
2022/07/11 08:35:59;;;;;;;10.70;5.32;;;;;;;18.28;100.00;97273.72;5025370;28;20226;-73
2022/07/11 08:38:24;;;;;;;15.55;6.50;;;;;;;18.17;100.00;97276.78;5024975;28;20029;-73
2022/07/11 08:40:51;;;;;;;17.02;5.97;;;;;;;18.39;100.00;97271.81;5027112;28;20045;-73
2022/07/11 08:43:17;;;;;;;9.55;5.50;;;;;;;18.65;100.00;97269.75;5039474;28;20350;-73
2022/07/11 08:45:44;;;;;;;11.85;5.93;;;;;;;18.82;100.00;97272.91;5026477;28;20033;-73
2022/07/11 08:48:09;;;;;;;11.38;6.18;;;;;;;19.06;100.00;97273.00;5023860;28;20389;-73
2022/07/11 08:50:35;;;;;;;17.58;5.72;;;;;;;19.04;100.00;97271.69;5026499;28;20123;-73
2022/07/11 08:53:03;;;;;;;11.30;6.13;;;;;;;19.41;100.00;97276.53;5023732;28;20681;-73
2022/07/11 08:55:29;;;;;;;11.23;6.30;;;;;;;19.66;100.00;97275.53;5026174;28;20420;-72
2022/07/11 08:57:55;;;;;;;9.95;5.53;;;;;;;19.79;100.00;97274.03;5024743;28;20099;-73
2022/07/11 09:00:22;;;;;;;9.10;5.43;;;;;;;19.46;100.00;97271.88;5026811;28;20697;-73
2022/07/11 09:02:48;;;;;;;8.43;5.05;;;;;;;19.08;100.00;97268.13;5025763;28;20124;-73
2022/07/11 09:05:14;;;;;;;11.30;5.70;;;;;;;18.91;100.00;97265.03;4994836;28;20048;-74
2022/07/11 09:07:47;;;;;;;11.38;5.03;;;;;;;18.82;100.00;97266.69;5023479;28;20120;-73
2022/07/11 09:10:16;;;;;;;10.57;4.97;;;;;;;18.85;100.00;97266.16;5023969;28;20170;-73
2022/07/11 09:13:02;;;;;;;9.20;4.88;;;;;;;19.08;100.00;97270.03;5024848;28;20195;-73
2022/07/11 09:15:48;;;;;;;10.40;4.72;;;;;;;19.27;100.00;97276.38;5024021;28;20057;-73
2022/07/11 09:18:35;;;;;;;12.48;4.90;;;;;;;19.30;100.00;97275.84;5020400;28;20440;-73
2022/07/11 09:26:37;;;;;;;6.35;3.88;;;;;;;20.54;100.00;97253.31;5019940;28;20079;-74
2022/07/11 09:29:09;;;;;;;7.20;4.07;;;;;;;20.67;100.00;97249.03;5021065;28;20589;-73
2022/07/11 09:31:37;;;;;;;7.43;4.45;;;;;;;20.94;100.00;97259.25;5024073;28;20447;-74
2022/07/11 09:34:06;;;;;;;8.05;4.40;;;;;;;21.20;100.00;97261.56;5022934;28;20044;-73
2022/07/11 09:36:52;;;;;;;6.50;4.13;;;;;;;21.13;100.00;97264.66;5024026;28;20099;-74
2022/07/11 09:39:20;;;;;;;9.23;4.63;;;;;;;21.03;100.00;97259.41;5022807;28;20041;-73
2022/07/11 09:41:47;;;;;;;9.07;4.22;;;;;;;20.86;100.00;97255.28;5023510;28;20025;-73
2022/07/11 09:44:24;;;;;;;10.60;4.93;;;;;;;20.55;100.00;97259.56;5020437;28;20201;-74
2022/07/11 09:46:51;;;;;;;8.65;4.82;;;;;;;20.75;100.00;97270.13;5020590;28;20029;-74
2022/07/11 09:49:29;;;;;;;6.97;4.40;;;;;;;20.98;100.00;97256.75;5022110;28;20041;-74
2022/07/11 09:51:56;;;;;;;7.70;4.47;;;;;;;21.23;100.00;97275.38;5022478;28;20184;-74
2022/07/11 09:54:23;;;;;;;9.00;4.43;;;;;;;21.39;100.00;97273.25;5021250;28;20388;-74
2022/07/11 09:56:51;;;;;;;9.88;4.43;;;;;;;21.63;100.00;97273.94;5022644;28;20435;-73
2022/07/11 09:59:18;;;;;;;8.20;4.20;;;;;;;21.74;100.00;97265.56;5021871;28;20434;-74
2022/07/11 10:01:45;;;;;;;6.95;3.83;;;;;;;22.11;100.00;97268.16;5024664;28;20045;-73
2022/07/11 10:04:10;;;;;;;7.65;4.20;;;;;;;22.27;100.00;97263.19;4996551;28;20337;-73
2022/07/11 10:06:38;;;;;;;6.25;3.45;;;;;;;22.67;100.00;97263.44;5019724;28;20255;-73
2022/07/11 10:09:05;;;;;;;7.20;4.07;;;;;;;22.72;100.00;97252.38;5022963;28;20109;-74
2022/07/11 10:11:32;;;;;;;10.55;4.15;;;;;;;22.44;100.00;97265.28;5021585;28;20329;-74
2022/07/11 10:14:03;;;;;;;7.00;4.00;;;;;;;21.83;100.00;97264.56;5021662;28;20049;-73
2022/07/11 10:16:28;;;;;;;;;;;;;;;21.76;100.00;97263.34;5023695;28;20553;-73
2022/07/11 10:19:13;;;;;;;9.95;4.20;;;;;;;21.62;100.00;97260.59;5020627;28;19915;-73
2022/07/11 10:22:11;;;;;;;9.05;4.18;;;;;;;21.06;100.00;97259.59;4326183;28;10001132;-73
2022/07/11 10:24:55;;;;;;;7.13;4.00;;;;;;;21.13;100.00;97265.47;5018736;28;20044;-74
2022/07/11 10:27:43;;;;;;;7.82;3.85;;;;;;;21.56;100.00;97268.06;5022734;28;20252;-73
2022/07/11 10:30:08;;;;;;;8.15;4.05;;;;;;;21.89;100.00;97260.63;5021085;28;20127;-74
2022/07/11 10:32:57;;;;;;;11.85;4.50;;;;;;;21.98;100.00;97268.91;5018572;28;20037;-73
2022/07/11 10:35:23;;;;;;;8.10;4.30;;;;;;;22.34;100.00;97262.78;5015659;28;20373;-74
2022/07/11 10:37:51;;;;;;;8.35;4.00;;;;;;;22.65;100.00;97268.38;5020339;28;20151;-73
2022/07/11 10:40:45;;;;;;;8.15;4.35;;;;;;;22.68;100.00;97267.75;5018066;28;20041;-73
2022/07/11 10:43:42;;;;;;;6.18;4.10;;;;;;;22.34;100.00;97263.59;5018246;28;20041;-74
2022/07/11 10:46:18;;;;;;;8.23;3.45;;;;;;;22.11;100.00;97265.41;5024139;28;20419;-73
2022/07/11 10:49:05;;;;;;;7.03;4.10;;;;;;;22.36;100.00;97266.00;5019717;28;20029;-74
2022/07/11 10:51:52;;;;;;;6.95;3.78;;;;;;;22.07;100.00;97269.00;5022575;28;20430;-73
2022/07/11 10:54:41;;;;;;;7.55;3.97;;;;;;;21.78;100.00;97274.72;5021866;28;20045;-73
2022/07/11 10:57:19;;;;;;;12.00;4.60;;;;;;;21.72;100.00;97274.03;5019560;28;20041;-74
2022/07/11 11:00:12;;;;;;;11.05;5.88;;;;;;;21.95;100.00;97270.34;5019851;28;20148;-73
2022/07/11 11:03:06;;;;;;;9.43;5.35;;;;;;;22.13;100.00;97276.00;5023173;28;20550;-73
2022/07/11 11:05:52;;;;;;;8.70;4.95;;;;;;;22.05;100.00;97279.41;4998689;28;20053;-74
2022/07/11 11:08:36;;;;;;;8.45;5.03;;;;;;;21.68;100.00;97273.81;5021283;28;20068;-74
2022/07/11 11:11:19;;;;;;;9.38;5.65;;;;;;;21.60;100.00;97285.41;5028309;28;20049;-73
2022/07/11 11:13:45;;;;;;;9.50;5.47;;;;;;;21.78;100.00;97283.72;5021187;28;20038;-73
2022/07/11 11:16:20;;;;;;;11.60;6.22;;;;;;;21.97;100.00;97289.91;5021574;28;20499;-74
2022/07/11 11:18:46;;;;;;;10.10;5.60;;;;;;;22.24;100.00;97288.31;5021772;28;20143;-74
2022/07/11 11:21:11;;;;;;;10.98;6.38;;;;;;;22.67;100.00;97285.25;5019097;28;20148;-74
2022/07/11 11:23:38;;;;;;;12.48;6.30;;;;;;;22.21;100.00;97292.47;5025604;28;20334;-73
2022/07/11 11:26:14;;;;;;;10.30;5.63;;;;;;;21.51;100.00;97289.13;5026472;28;20036;-74